createdAt,value
2017-05-05T00:01:54.765Z,82.20
2017-05-05T00:04:22.497Z,80.00
2017-05-05T00:06:50.250Z,79.70
2017-05-05T00:09:17.975Z,79.90
2017-05-05T00:11:46.473Z,80.60
2017-05-05T00:14:14.618Z,78.70
2017-05-05T00:16:42.345Z,78.60
2017-05-05T00:19:10.074Z,79.20
2017-05-05T00:21:38.421Z,80.60
2017-05-05T00:24:06.893Z,77.20
2017-05-05T00:26:34.630Z,75.40
2017-05-05T00:29:02.386Z,76.20
2017-05-05T00:31:30.121Z,76.90
2017-05-05T00:33:57.878Z,76.30
2017-05-05T00:36:26.747Z,76.20
2017-05-05T00:38:55.213Z,76.90
2017-05-05T00:41:22.941Z,78.50
2017-05-05T00:43:50.961Z,79.60
2017-05-05T00:46:19.434Z,79.00
2017-05-05T00:48:47.168Z,79.60
2017-05-05T00:51:15.073Z,80.90
2017-05-05T00:53:42.806Z,82.20
2017-05-05T00:56:10.529Z,82.30
2017-05-05T00:58:38.570Z,83.00
2017-05-05T01:01:07.046Z,82.50
2017-05-05T01:03:35.518Z,82.10
2017-05-05T01:06:03.598Z,83.20
2017-05-05T01:08:32.066Z,82.50
2017-05-05T01:10:59.797Z,82.00
2017-05-05T01:13:27.578Z,81.00
2017-05-05T01:15:55.329Z,81.20
2017-05-05T01:18:23.057Z,83.50
2017-05-05T01:20:50.813Z,79.50
2017-05-05T01:23:19.283Z,80.90
2017-05-05T01:25:47.769Z,80.10
2017-05-05T01:28:16.549Z,80.20
2017-05-05T01:30:45.030Z,81.10
2017-05-05T01:33:13.505Z,82.00
2017-05-05T01:35:41.998Z,82.30
2017-05-05T01:38:10.481Z,81.00
2017-05-05T01:40:39.039Z,82.30
2017-05-05T01:43:07.016Z,81.80
2017-05-05T01:45:34.747Z,80.50
2017-05-05T01:48:02.474Z,79.60
2017-05-05T01:50:30.259Z,81.60
2017-05-05T01:52:58.006Z,80.60
2017-05-05T01:55:25.734Z,79.70
2017-05-05T01:57:53.771Z,80.30
2017-05-05T02:00:21.873Z,79.40
2017-05-05T02:02:49.608Z,79.60
2017-05-05T02:05:17.371Z,79.40
2017-05-05T02:07:45.113Z,80.50
2017-05-05T02:10:12.841Z,80.20
2017-05-05T02:12:40.815Z,79.60
2017-05-05T02:15:08.547Z,80.60
2017-05-05T02:17:36.271Z,81.40
2017-05-05T02:20:04.293Z,80.40
2017-05-05T02:22:32.028Z,81.40
2017-05-05T02:24:59.761Z,80.00
2017-05-05T02:27:27.525Z,80.50
2017-05-05T02:29:55.259Z,80.60
2017-05-05T02:32:23.789Z,81.00
2017-05-05T02:34:51.884Z,80.00
2017-05-05T02:37:19.610Z,80.50
2017-05-05T02:39:47.338Z,80.40
2017-05-05T02:42:15.837Z,80.80
2017-05-05T02:44:43.566Z,80.50
2017-05-05T02:47:11.313Z,80.40
2017-05-05T02:49:39.405Z,79.40
2017-05-05T02:52:07.129Z,79.40
2017-05-05T02:54:34.857Z,80.90
2017-05-05T02:57:03.106Z,79.70
2017-05-05T02:59:30.829Z,81.20
2017-05-05T03:01:58.561Z,81.40
2017-05-05T03:04:27.434Z,80.90
2017-05-05T03:06:55.906Z,81.50
2017-05-05T03:09:24.382Z,81.10
2017-05-05T03:11:52.137Z,81.10
2017-05-05T03:14:19.883Z,81.10
2017-05-05T03:16:47.609Z,81.80
2017-05-05T03:19:15.549Z,81.90
2017-05-05T03:21:44.030Z,82.50
2017-05-05T03:24:12.502Z,81.10
2017-05-05T03:26:40.998Z,82.40
2017-05-05T03:29:08.739Z,83.70
2017-05-05T03:31:36.489Z,81.90
2017-05-05T03:34:04.785Z,81.90
2017-05-05T03:36:32.524Z,82.80
2017-05-05T03:39:00.254Z,82.80
2017-05-05T03:41:28.039Z,83.30
2017-05-05T03:43:55.774Z,84.00
2017-05-05T03:46:23.506Z,83.30
2017-05-05T03:48:52.025Z,84.10
2017-05-05T03:51:19.769Z,84.80
2017-05-05T03:53:47.505Z,86.40
2017-05-05T03:56:16.739Z,84.50
2017-05-05T03:58:44.472Z,85.00
2017-05-05T04:01:12.950Z,86.30
2017-05-05T04:03:40.706Z,86.00
2017-05-05T04:06:08.457Z,86.70
2017-05-05T04:08:36.189Z,88.20
2017-05-05T04:11:03.954Z,85.40
2017-05-05T04:13:31.716Z,86.70
2017-05-05T04:15:59.441Z,87.20
2017-05-05T04:18:27.565Z,87.50
2017-05-05T04:20:55.476Z,86.60
2017-05-05T04:23:23.210Z,86.10
2017-05-05T04:25:50.974Z,87.90
2017-05-05T04:28:18.735Z,88.30
2017-05-05T04:30:46.463Z,88.40
2017-05-05T04:33:14.445Z,87.80
2017-05-05T04:35:42.170Z,87.10
2017-05-05T04:38:09.904Z,88.80
2017-05-05T04:40:38.349Z,90.10
2017-05-05T04:43:06.205Z,89.80
2017-05-05T04:45:33.937Z,90.10
2017-05-05T04:48:02.666Z,90.80
2017-05-05T04:50:30.395Z,88.80
2017-05-05T04:52:58.130Z,89.60
2017-05-05T04:55:27.696Z,89.30
2017-05-05T04:57:55.421Z,89.60
2017-05-05T05:00:23.158Z,89.20
2017-05-05T05:02:50.948Z,90.00
2017-05-05T05:05:18.681Z,87.70
2017-05-05T05:07:46.410Z,88.60
2017-05-05T05:10:14.166Z,89.10
2017-05-05T05:12:41.945Z,89.30
2017-05-05T05:15:10.414Z,86.30
2017-05-05T05:17:38.291Z,89.10
2017-05-05T05:20:06.762Z,88.20
2017-05-05T05:22:34.493Z,88.10
2017-05-05T05:25:02.241Z,87.40
2017-05-05T05:27:29.966Z,85.80
2017-05-05T05:29:58.449Z,86.30
2017-05-05T05:32:27.127Z,83.70
2017-05-05T05:34:54.854Z,84.00
2017-05-05T05:37:22.590Z,83.20
2017-05-05T05:39:50.525Z,82.00
2017-05-05T05:42:18.994Z,81.50
2017-05-05T05:44:46.911Z,81.20
2017-05-05T05:47:14.937Z,78.60
2017-05-05T05:49:42.672Z,79.70
2017-05-05T05:52:10.404Z,79.50
2017-05-05T05:54:38.162Z,79.10
2017-05-05T05:57:05.925Z,79.50
2017-05-05T05:59:33.655Z,79.50
2017-05-05T06:02:02.153Z,82.20
2017-05-05T06:04:30.650Z,80.50
2017-05-05T06:06:58.377Z,80.00
2017-05-05T06:09:26.349Z,80.40
2017-05-05T06:11:54.086Z,80.30
2017-05-05T06:14:21.817Z,80.10
2017-05-05T06:16:49.841Z,81.50
2017-05-05T06:19:17.581Z,80.20
2017-05-05T06:21:45.310Z,79.00
2017-05-05T06:24:13.340Z,79.00
2017-05-05T06:26:41.089Z,79.40
2017-05-05T06:29:08.815Z,78.00
2017-05-05T06:31:36.745Z,78.50
2017-05-05T06:34:05.245Z,78.10
2017-05-05T06:36:32.990Z,78.70
2017-05-05T06:39:01.062Z,77.80
2017-05-05T06:41:29.535Z,78.40
2017-05-05T06:43:57.277Z,77.50
2017-05-05T06:46:25.556Z,78.30
2017-05-05T06:48:53.299Z,76.70
2017-05-05T06:51:21.033Z,76.80
2017-05-05T06:53:48.756Z,77.00
2017-05-05T06:56:16.480Z,77.10
2017-05-05T06:58:44.200Z,77.90
2017-05-05T07:01:12.666Z,77.20
2017-05-05T07:03:40.380Z,77.60
2017-05-05T07:06:08.188Z,77.10
2017-05-05T07:08:35.904Z,77.90
2017-05-05T07:11:03.647Z,78.40
2017-05-05T07:13:31.380Z,76.70
2017-05-05T07:15:59.128Z,76.20
2017-05-05T07:18:26.891Z,76.60
2017-05-05T07:20:54.641Z,77.60
2017-05-05T07:23:22.364Z,76.80
2017-05-05T07:25:50.108Z,76.90
2017-05-05T07:28:17.846Z,77.10
2017-05-05T07:30:45.568Z,77.80
2017-05-05T07:33:13.320Z,77.80
2017-05-05T07:35:41.047Z,78.00
2017-05-05T07:38:08.780Z,76.70
2017-05-05T07:40:36.875Z,77.40
2017-05-05T07:43:04.595Z,75.70
2017-05-05T07:45:32.311Z,76.20
2017-05-05T07:48:00.371Z,75.80
2017-05-05T07:50:28.087Z,75.90
2017-05-05T07:52:55.812Z,76.00
2017-05-05T07:55:24.628Z,76.70
2017-05-05T07:57:52.347Z,76.20
2017-05-05T08:00:20.079Z,75.80
2017-05-05T08:02:47.837Z,75.60
2017-05-05T08:05:15.564Z,75.30
2017-05-05T08:07:44.020Z,74.80
2017-05-05T08:10:11.855Z,72.40
2017-05-05T08:12:39.588Z,71.70
2017-05-05T08:15:07.316Z,70.40
2017-05-05T08:17:35.082Z,71.20
2017-05-05T08:20:02.824Z,71.60
2017-05-05T08:22:30.575Z,71.30
2017-05-05T08:24:58.585Z,71.50
2017-05-05T08:27:26.310Z,72.70
2017-05-05T08:29:54.038Z,73.30
2017-05-05T08:32:21.969Z,73.90
2017-05-05T08:34:49.696Z,73.40
2017-05-05T08:37:17.425Z,72.40
2017-05-05T08:39:45.343Z,72.70
2017-05-05T08:42:13.064Z,73.30
2017-05-05T08:44:40.789Z,72.50
2017-05-05T08:47:08.535Z,73.80
2017-05-05T08:49:37.171Z,73.50
2017-05-05T08:52:04.923Z,74.70
2017-05-05T08:54:33.418Z,75.70
2017-05-05T08:57:01.146Z,75.30
2017-05-05T08:59:28.891Z,76.50
2017-05-05T09:01:56.873Z,77.20
2017-05-05T09:04:24.614Z,77.10
2017-05-05T09:06:52.349Z,76.90
2017-05-05T09:09:20.396Z,77.10
2017-05-05T09:11:48.860Z,78.50
2017-05-05T09:14:17.355Z,80.50
2017-05-05T09:16:46.883Z,80.90
2017-05-05T09:19:14.605Z,79.80
2017-05-05T09:21:42.328Z,81.50
2017-05-05T09:24:10.096Z,81.80
2017-05-05T09:26:37.815Z,82.70
2017-05-05T09:29:06.275Z,83.90
2017-05-05T09:31:34.147Z,84.60
2017-05-05T09:34:01.864Z,87.40
2017-05-05T09:36:29.594Z,85.50
2017-05-05T09:38:57.736Z,86.40
2017-05-05T09:41:25.471Z,87.20
2017-05-05T09:43:53.192Z,86.70
2017-05-05T09:46:20.931Z,86.60
2017-05-05T09:48:48.679Z,88.50
2017-05-05T09:51:16.553Z,88.10
2017-05-05T09:53:44.332Z,86.60
2017-05-05T09:56:12.810Z,82.60
2017-05-05T09:58:40.527Z,84.50
2017-05-05T10:01:09.732Z,85.50
2017-05-05T10:03:37.458Z,87.80
2017-05-05T10:06:05.197Z,88.80
2017-05-05T10:08:33.684Z,86.00
2017-05-05T10:11:02.165Z,87.10
2017-05-05T10:13:30.635Z,87.40
2017-05-05T10:15:58.372Z,88.00
2017-05-05T10:18:26.103Z,88.10
2017-05-05T10:20:53.881Z,89.10
2017-05-05T10:23:21.897Z,89.20
2017-05-05T10:25:49.620Z,86.90
2017-05-05T10:28:17.349Z,86.10
2017-05-05T10:30:45.096Z,88.40
2017-05-05T10:33:13.568Z,86.80
2017-05-05T10:35:42.055Z,88.00
2017-05-05T10:38:10.729Z,87.60
2017-05-05T10:40:38.440Z,88.70
2017-05-05T10:43:06.160Z,85.00
2017-05-05T10:45:34.640Z,88.60
2017-05-05T10:48:02.360Z,86.90
2017-05-05T10:50:30.103Z,86.30
2017-05-05T10:52:59.062Z,87.50
2017-05-05T10:55:27.521Z,86.50
2017-05-05T10:57:55.240Z,87.70
2017-05-05T11:00:23.160Z,86.00
2017-05-05T11:02:50.877Z,85.80
2017-05-05T11:05:18.601Z,86.20
2017-05-05T11:07:46.541Z,86.70
2017-05-05T11:10:14.269Z,87.60
2017-05-05T11:12:41.988Z,86.30
2017-05-05T11:15:09.729Z,88.00
2017-05-05T11:17:37.452Z,86.90
2017-05-05T11:20:05.204Z,86.90
2017-05-05T11:22:32.954Z,86.90
2017-05-05T11:25:01.411Z,85.80
2017-05-05T11:27:29.148Z,85.90
2017-05-05T11:29:57.043Z,87.40
2017-05-05T11:32:24.764Z,89.50
2017-05-05T11:34:52.487Z,90.00
2017-05-05T11:37:21.258Z,88.20
2017-05-05T11:39:49.009Z,89.90
2017-05-05T11:42:16.735Z,88.50
2017-05-05T11:44:44.476Z,88.70
2017-05-05T11:47:12.200Z,87.80
2017-05-05T11:49:39.944Z,88.40
2017-05-05T11:52:07.839Z,88.50
2017-05-05T11:54:35.561Z,87.60
2017-05-05T11:57:03.287Z,88.50
2017-05-05T11:59:31.800Z,87.60
2017-05-05T12:01:59.515Z,86.70
2017-05-05T12:04:27.236Z,90.30
2017-05-05T12:06:55.136Z,90.20
2017-05-05T12:09:22.856Z,90.50
2017-05-05T12:11:50.583Z,90.40
2017-05-05T12:14:18.340Z,90.10
2017-05-05T12:16:46.059Z,90.10
2017-05-05T12:19:13.780Z,89.60
2017-05-05T12:21:43.260Z,90.10
2017-05-05T12:24:10.985Z,89.50
2017-05-05T12:26:38.722Z,91.00
2017-05-05T12:29:06.489Z,90.60
2017-05-05T12:31:34.221Z,90.60
2017-05-05T12:34:02.700Z,90.60
2017-05-05T12:36:30.660Z,91.20
2017-05-05T12:38:58.390Z,91.00
2017-05-05T12:41:26.126Z,91.70
2017-05-05T12:43:55.055Z,92.50
2017-05-05T12:46:22.781Z,91.40
2017-05-05T12:48:50.508Z,91.10
2017-05-05T12:51:19.292Z,90.50
2017-05-05T12:53:47.016Z,90.50
2017-05-05T12:56:14.747Z,90.90
2017-05-05T12:58:43.076Z,90.10
2017-05-05T13:01:10.803Z,89.10
2017-05-05T13:03:38.524Z,90.50
2017-05-05T13:06:06.388Z,88.60
2017-05-05T13:08:34.127Z,87.20
2017-05-05T13:11:01.860Z,86.40
2017-05-05T13:13:29.627Z,86.80
2017-05-05T13:15:57.356Z,87.60
2017-05-05T13:18:25.831Z,86.10
2017-05-05T13:20:54.318Z,85.60
2017-05-05T13:23:22.788Z,84.20
2017-05-05T13:25:51.276Z,82.50
2017-05-05T13:28:19.788Z,82.70
2017-05-05T13:30:47.540Z,83.80
2017-05-05T13:33:15.275Z,82.90
2017-05-05T13:35:44.372Z,82.30
2017-05-05T13:38:12.884Z,81.80
2017-05-05T13:40:40.622Z,80.10
2017-05-05T13:43:09.116Z,81.30
2017-05-05T13:45:36.860Z,80.40
2017-05-05T13:48:05.341Z,81.30
2017-05-05T13:50:34.313Z,81.90
2017-05-05T13:53:02.044Z,79.70
2017-05-05T13:55:29.831Z,79.10
2017-05-05T13:57:57.829Z,78.00
2017-05-05T14:00:26.311Z,77.80
2017-05-05T14:02:54.791Z,76.90
2017-05-05T14:05:23.370Z,78.50
2017-05-05T14:07:51.855Z,77.70
2017-05-05T14:10:20.340Z,77.20
2017-05-05T14:12:48.315Z,78.10
2017-05-05T14:15:16.796Z,76.50
2017-05-05T14:17:45.301Z,77.30
2017-05-05T14:20:13.068Z,77.00
2017-05-05T14:22:40.831Z,78.00
2017-05-05T14:25:08.595Z,77.40
2017-05-05T14:27:36.343Z,76.50
2017-05-05T14:30:04.112Z,77.70
2017-05-05T14:32:31.855Z,77.50
2017-05-05T14:35:00.347Z,77.90
2017-05-05T14:37:28.091Z,78.50
2017-05-05T14:39:55.817Z,78.60
2017-05-05T14:42:23.559Z,78.80
2017-05-05T14:44:51.325Z,78.80
2017-05-05T14:47:19.056Z,80.70
2017-05-05T14:49:46.801Z,79.80
2017-05-05T14:52:14.548Z,80.30
2017-05-05T14:54:42.294Z,79.90
2017-05-05T14:57:11.651Z,81.10
2017-05-05T14:59:39.419Z,81.10
2017-05-05T15:02:07.158Z,81.50
2017-05-05T15:04:34.889Z,82.20
2017-05-05T15:07:02.624Z,81.70
2017-05-05T15:09:30.348Z,81.40
2017-05-05T15:11:58.082Z,81.10
2017-05-05T15:14:25.828Z,79.80
2017-05-05T15:16:53.548Z,79.80
2017-05-05T15:19:21.324Z,78.50
2017-05-05T15:21:49.056Z,79.80
2017-05-05T15:24:16.820Z,81.00
2017-05-05T15:26:44.543Z,81.00
2017-05-05T15:29:12.263Z,80.60
2017-05-05T15:31:40.727Z,80.60
2017-05-05T15:34:08.461Z,80.60
2017-05-05T15:36:36.242Z,80.60
2017-05-05T15:39:03.982Z,81.10
2017-05-05T15:41:31.765Z,81.90
2017-05-05T15:43:59.911Z,81.60
2017-05-05T15:46:27.642Z,80.90
2017-05-05T15:48:55.375Z,82.30
2017-05-05T15:51:23.245Z,82.50
2017-05-05T15:53:50.999Z,81.50
2017-05-05T15:56:18.721Z,81.20
2017-05-05T15:58:46.596Z,81.60
2017-05-05T16:01:14.346Z,80.00
2017-05-05T16:03:42.108Z,81.60
2017-05-05T16:06:10.062Z,81.10
2017-05-05T16:08:37.804Z,81.00
2017-05-05T16:11:05.557Z,81.30
2017-05-05T16:13:33.317Z,81.60
2017-05-05T16:16:01.074Z,81.50
2017-05-05T16:18:28.812Z,82.70
2017-05-05T16:20:56.576Z,82.60
2017-05-05T16:23:24.305Z,83.30
2017-05-05T16:25:52.790Z,83.50
2017-05-05T16:28:20.813Z,83.40
2017-05-05T16:30:48.548Z,83.70
2017-05-05T16:33:16.271Z,84.00
2017-05-05T16:35:44.047Z,84.90
2017-05-05T16:38:11.783Z,85.40
2017-05-05T16:40:39.509Z,86.60
2017-05-05T16:43:07.258Z,87.30
2017-05-05T16:45:34.988Z,86.30
2017-05-05T16:48:02.741Z,86.60
2017-05-05T16:50:30.519Z,85.10
2017-05-05T16:52:58.254Z,86.40
2017-05-05T16:55:26.590Z,86.80
2017-05-05T16:57:54.347Z,87.20
2017-05-05T17:00:22.109Z,87.40
2017-05-05T17:02:49.858Z,87.90
2017-05-05T17:05:19.073Z,87.80
2017-05-05T17:07:46.813Z,87.60
2017-05-05T17:10:16.524Z,88.10
2017-05-05T17:12:45.213Z,88.50
2017-05-05T17:15:12.942Z,88.40
2017-05-05T17:17:40.674Z,89.10
2017-05-05T17:20:08.467Z,88.20
2017-05-05T17:22:36.195Z,88.10
2017-05-05T17:25:03.943Z,88.20
2017-05-05T17:27:31.888Z,88.60
2017-05-05T17:29:59.607Z,88.80
2017-05-05T17:32:27.336Z,89.50
2017-05-05T17:34:55.092Z,90.10
2017-05-05T17:37:23.592Z,90.30
2017-05-05T17:39:51.334Z,89.40
2017-05-05T17:42:19.085Z,90.00
2017-05-05T17:44:47.006Z,90.20
2017-05-05T17:47:14.759Z,90.20
2017-05-05T17:49:42.522Z,90.20
2017-05-05T17:52:10.259Z,90.20
2017-05-05T17:54:38.732Z,90.30
2017-05-05T17:57:06.652Z,90.40
2017-05-05T17:59:34.402Z,90.60
2017-05-05T18:02:02.124Z,90.60
2017-05-05T18:04:30.265Z,90.70
2017-05-05T18:06:57.996Z,91.20
2017-05-05T18:09:25.798Z,91.30
2017-05-05T18:11:54.100Z,91.10
2017-05-05T18:14:21.836Z,91.40
2017-05-05T18:16:49.572Z,91.80
2017-05-05T18:19:17.337Z,91.90
2017-05-05T18:21:45.080Z,91.60
2017-05-05T18:24:12.839Z,91.50
2017-05-05T18:26:41.309Z,91.60
2017-05-05T18:29:09.805Z,91.90
2017-05-05T18:31:37.576Z,92.20
2017-05-05T18:34:06.323Z,92.50
2017-05-05T18:36:34.039Z,92.40
2017-05-05T18:39:01.794Z,92.40
2017-05-05T18:41:29.567Z,92.70
2017-05-05T18:43:57.288Z,93.20
2017-05-05T18:46:25.754Z,93.00
2017-05-05T18:48:53.498Z,92.60
2017-05-05T18:51:21.239Z,93.00
2017-05-05T18:53:48.964Z,93.30
2017-05-05T18:56:17.469Z,93.00
2017-05-05T18:58:45.200Z,93.20
2017-05-05T19:01:12.940Z,93.00
2017-05-05T19:03:40.689Z,93.20
2017-05-05T19:06:08.420Z,93.50
2017-05-05T19:08:36.164Z,93.50
2017-05-05T19:11:05.269Z,93.70
2017-05-05T19:13:33.051Z,93.90
2017-05-05T19:16:00.847Z,94.40
2017-05-05T19:18:28.602Z,94.40
2017-05-05T19:20:56.391Z,94.40
2017-05-05T19:23:24.127Z,94.40
2017-05-05T19:25:52.255Z,94.80
2017-05-05T19:28:20.038Z,94.50
2017-05-05T19:30:47.793Z,94.20
2017-05-05T19:33:15.565Z,94.40
2017-05-05T19:35:43.294Z,94.30
2017-05-05T19:38:11.765Z,94.10
2017-05-05T19:40:40.273Z,94.00
2017-05-05T19:43:07.997Z,93.80
2017-05-05T19:45:35.740Z,93.70
2017-05-05T19:48:03.750Z,94.20
2017-05-05T19:50:32.213Z,94.50
2017-05-05T19:52:59.942Z,94.70
2017-05-05T19:55:28.163Z,94.70
2017-05-05T19:57:55.893Z,95.00
2017-05-05T20:00:23.611Z,94.90
2017-05-05T20:02:51.507Z,94.40
2017-05-05T20:05:19.231Z,94.70
2017-05-05T20:07:47.709Z,94.80
2017-05-05T20:10:16.604Z,94.80
2017-05-05T20:12:45.094Z,95.20
2017-05-05T20:15:13.560Z,95.10
2017-05-05T20:17:41.620Z,95.00
2017-05-05T20:20:09.336Z,95.10
2017-05-05T20:22:37.068Z,95.30
2017-05-05T20:25:05.122Z,95.80
2017-05-05T20:27:33.610Z,95.50
2017-05-05T20:30:01.347Z,95.70
2017-05-05T20:32:29.087Z,95.30
2017-05-05T20:34:56.816Z,95.40
2017-05-05T20:37:24.557Z,95.20
2017-05-05T20:39:54.123Z,94.90
2017-05-05T20:42:21.854Z,95.00
2017-05-05T20:44:49.580Z,94.90
2017-05-05T20:47:17.351Z,94.70
2017-05-05T20:49:45.082Z,95.00
2017-05-05T20:52:12.803Z,95.20
2017-05-05T20:54:40.572Z,95.50
2017-05-05T20:57:08.288Z,95.50
2017-05-05T20:59:36.044Z,95.10
2017-05-05T21:02:04.039Z,94.60
2017-05-05T21:04:31.794Z,94.20
2017-05-05T21:06:59.539Z,94.20
2017-05-05T21:09:27.268Z,94.40
2017-05-05T21:11:54.997Z,94.30
2017-05-05T21:14:23.488Z,94.60
2017-05-05T21:16:51.215Z,95.10
2017-05-05T21:19:18.944Z,95.40
2017-05-05T21:21:46.672Z,95.00
2017-05-05T21:24:14.901Z,94.90
2017-05-05T21:26:42.635Z,95.20
2017-05-05T21:29:10.408Z,95.30
2017-05-05T21:31:38.149Z,95.40
2017-05-05T21:34:05.879Z,95.40
2017-05-05T21:36:33.613Z,95.10
2017-05-05T21:39:01.336Z,95.50
2017-05-05T21:41:29.070Z,95.90
2017-05-05T21:43:56.801Z,96.20
2017-05-05T21:46:24.528Z,96.60
2017-05-05T21:48:52.247Z,96.70
2017-05-05T21:51:19.972Z,96.50
2017-05-05T21:53:47.693Z,96.50
2017-05-05T21:56:16.157Z,96.60
2017-05-05T21:58:43.892Z,95.90
2017-05-05T22:01:11.639Z,95.90
2017-05-05T22:03:39.831Z,96.20
2017-05-05T22:06:07.564Z,95.90
2017-05-05T22:08:35.290Z,95.90
2017-05-05T22:11:03.035Z,95.90
2017-05-05T22:13:30.768Z,95.90
2017-05-05T22:15:58.491Z,96.40
2017-05-05T22:18:26.959Z,97.00
2017-05-05T22:20:54.709Z,96.60
2017-05-05T22:23:22.439Z,96.70
2017-05-05T22:25:50.158Z,97.20
2017-05-05T22:28:19.656Z,97.40
2017-05-05T22:30:47.377Z,97.90
2017-05-05T22:33:15.101Z,98.30
2017-05-05T22:35:43.592Z,98.60
2017-05-05T22:38:11.328Z,98.60
2017-05-05T22:40:39.052Z,97.60
2017-05-05T22:43:06.772Z,98.00
2017-05-05T22:45:35.234Z,98.00
2017-05-05T22:48:02.960Z,98.20
2017-05-05T22:50:30.689Z,98.60
2017-05-05T22:52:58.555Z,98.40
2017-05-05T22:55:26.287Z,98.20
2017-05-05T22:57:54.024Z,98.00
2017-05-05T23:00:22.132Z,97.80
2017-05-05T23:02:50.604Z,98.60
2017-05-05T23:05:18.332Z,98.70
2017-05-05T23:07:46.385Z,99.30
2017-05-05T23:10:14.145Z,99.80
2017-05-05T23:12:41.890Z,99.90
2017-05-05T23:15:09.660Z,99.90
2017-05-05T23:17:37.425Z,99.90
2017-05-05T23:20:05.157Z,99.90
2017-05-05T23:22:32.969Z,99.90
2017-05-05T23:25:00.760Z,99.90
2017-05-05T23:27:28.571Z,99.90
2017-05-05T23:29:56.540Z,99.90
2017-05-05T23:32:25.064Z,99.90
2017-05-05T23:34:52.844Z,99.90
2017-05-05T23:37:21.104Z,99.90
2017-05-05T23:39:49.816Z,99.90
2017-05-05T23:42:17.540Z,99.90
2017-05-05T23:44:45.296Z,99.90
2017-05-05T23:47:13.019Z,99.90
2017-05-05T23:49:40.760Z,99.90
2017-05-05T23:52:08.916Z,99.90
2017-05-05T23:54:36.702Z,99.90
2017-05-05T23:57:04.483Z,99.90
2017-05-05T23:59:32.309Z,99.90
